Main page
METAR-TAF:

METAR-TAF

Airports :

Ignatyevo Airport

Blagoveshchensk, Russia

latitude: 50-25-30N, longitude: 127-24-48E, elevation: 195 m

Current weather observation

The report was made 27 minutes ago, at 17:00 UTC
Wind 4 kt from the Southwest
Temperature 18°C
Humidity 77%
Pressure 1007 hPa
Visibility 10 km or more
no clouds below 1500 m and no cumulonimbus

METAR: UHBB 221700Z 23002MPS CAVOK 18/14 Q1007 R36/090060 NOSIG RMK QFE738/0984

Time: 02:27 (17:27 UTC)

Forecast

The report was made 3 hours and 37 minutes ago, at 13:50 UTC
Forecast valid from 22 at 15 UTC to 23 at 15 UTC
Wind 6 kt from the West
Visibility 10 km or more
Scattered clouds at a height of 3300 ft, Cumulonimbus.
Temporary
from 23 at 03 UTC to 23 at 12 UTC
Visibility: 3100 m
thunderstorm, light rain

TAF: UHBB 221350Z 2215/2315 27003MPS 9999 SCT033CB TEMPO 2303/2312 3100 -TSRA

Weather observations and forecasts of more than 4000 airports (METAR and TAF reports).

The available stations are represented by yellow and red dots on the map.

Hover mouse over dot to see the name of the station.

Then click to see weather observations and forecasts.

To change the map : click on the green buttons with a black cross to zoom in, on the green button with a dash to zoom out, or on the green arrows for adjacent maps.


METAR-TAF: